sensor_id;sensor_type;location;lat;lon;timestamp;temperature;humidity
72202;SHT30;60105;54.956;73.412;2023-06-14T00:03:00;11.08;56.78
72202;SHT30;60105;54.956;73.412;2023-06-14T00:06:01;11.18;57.03
72202;SHT30;60105;54.956;73.412;2023-06-14T00:09:03;11.27;57.60
72202;SHT30;60105;54.956;73.412;2023-06-14T00:12:06;11.36;60.89
72202;SHT30;60105;54.956;73.412;2023-06-14T00:15:08;11.36;57.87
72202;SHT30;60105;54.956;73.412;2023-06-14T00:18:10;11.44;58.28
72202;SHT30;60105;54.956;73.412;2023-06-14T00:21:50;11.29;57.86
72202;SHT30;60105;54.956;73.412;2023-06-14T00:24:52;11.26;57.85
72202;SHT30;60105;54.956;73.412;2023-06-14T00:27:56;11.27;58.45
72202;SHT30;60105;54.956;73.412;2023-06-14T00:30:58;11.18;56.98
72202;SHT30;60105;54.956;73.412;2023-06-14T00:33:59;11.18;56.91
72202;SHT30;60105;54.956;73.412;2023-06-14T00:37:01;11.22;57.34
72202;SHT30;60105;54.956;73.412;2023-06-14T00:40:03;11.22;55.99
72202;SHT30;60105;54.956;73.412;2023-06-14T00:43:06;11.36;56.51
72202;SHT30;60105;54.956;73.412;2023-06-14T00:46:50;11.47;55.67
72202;SHT30;60105;54.956;73.412;2023-06-14T00:49:53;11.53;55.52
72202;SHT30;60105;54.956;73.412;2023-06-14T00:52:57;11.56;53.72
72202;SHT30;60105;54.956;73.412;2023-06-14T00:55:59;11.68;55.36
72202;SHT30;60105;54.956;73.412;2023-06-14T00:59:02;11.71;55.46
72202;SHT30;60105;54.956;73.412;2023-06-14T01:02:03;11.78;52.97
72202;SHT30;60105;54.956;73.412;2023-06-14T01:05:05;11.82;53.29
72202;SHT30;60105;54.956;73.412;2023-06-14T01:08:37;11.82;51.59
72202;SHT30;60105;54.956;73.412;2023-06-14T01:14:51;11.99;51.72
72202;SHT30;60105;54.956;73.412;2023-06-14T01:17:56;11.99;50.67
72202;SHT30;60105;54.956;73.412;2023-06-14T01:21:04;12.05;49.94
72202;SHT30;60105;54.956;73.412;2023-06-14T01:24:10;12.06;48.96
72202;SHT30;60105;54.956;73.412;2023-06-14T01:27:13;12.12;49.53
72202;SHT30;60105;54.956;73.412;2023-06-14T01:30:17;12.22;50.25
72202;SHT30;60105;54.956;73.412;2023-06-14T01:33:22;12.26;50.09
72202;SHT30;60105;54.956;73.412;2023-06-14T01:36:52;12.38;49.78
72202;SHT30;60105;54.956;73.412;2023-06-14T01:39:55;12.45;48.96
72202;SHT30;60105;54.956;73.412;2023-06-14T01:42:57;12.55;49.80
72202;SHT30;60105;54.956;73.412;2023-06-14T01:46:00;12.61;49.90
72202;SHT30;60105;54.956;73.412;2023-06-14T01:49:02;12.67;50.20
72202;SHT30;60105;54.956;73.412;2023-06-14T01:52:05;12.70;49.70
72202;SHT30;60105;54.956;73.412;2023-06-14T01:55:07;12.86;50.10
72202;SHT30;60105;54.956;73.412;2023-06-14T01:58:12;12.93;49.39
72202;SHT30;60105;54.956;73.412;2023-06-14T02:01:50;13.10;50.99
72202;SHT30;60105;54.956;73.412;2023-06-14T02:04:51;13.19;48.66
72202;SHT30;60105;54.956;73.412;2023-06-14T02:07:53;13.31;48.09
72202;SHT30;60105;54.956;73.412;2023-06-14T02:10:54;13.45;47.61
72202;SHT30;60105;54.956;73.412;2023-06-14T02:13:57;13.55;48.70
72202;SHT30;60105;54.956;73.412;2023-06-14T02:17:01;13.62;46.71
72202;SHT30;60105;54.956;73.412;2023-06-14T02:20:03;13.77;47.50
72202;SHT30;60105;54.956;73.412;2023-06-14T02:23:06;13.85;46.13
72202;SHT30;60105;54.956;73.412;2023-06-14T02:26:18;13.96;47.23
72202;SHT30;60105;54.956;73.412;2023-06-14T02:29:20;14.04;44.92
72202;SHT30;60105;54.956;73.412;2023-06-14T02:32:23;14.14;44.36
72202;SHT30;60105;54.956;73.412;2023-06-14T02:35:24;14.25;45.13
72202;SHT30;60105;54.956;73.412;2023-06-14T02:38:27;14.37;43.35
72202;SHT30;60105;54.956;73.412;2023-06-14T02:41:50;14.48;42.36
72202;SHT30;60105;54.956;73.412;2023-06-14T02:44:51;14.57;42.27
72202;SHT30;60105;54.956;73.412;2023-06-14T02:47:53;14.68;44.09
72202;SHT30;60105;54.956;73.412;2023-06-14T02:50:56;14.69;41.83
72202;SHT30;60105;54.956;73.412;2023-06-14T02:53:57;14.78;42.23
72202;SHT30;60105;54.956;73.412;2023-06-14T02:56:59;14.96;43.85
72202;SHT30;60105;54.956;73.412;2023-06-14T03:00:00;15.07;40.77
72202;SHT30;60105;54.956;73.412;2023-06-14T03:03:05;15.19;39.78
72202;SHT30;60105;54.956;73.412;2023-06-14T03:06:50;15.24;39.57
72202;SHT30;60105;54.956;73.412;2023-06-14T03:09:54;15.33;39.30
72202;SHT30;60105;54.956;73.412;2023-06-14T03:12:55;15.43;38.94
72202;SHT30;60105;54.956;73.412;2023-06-14T03:15:57;15.54;39.02
72202;SHT30;60105;54.956;73.412;2023-06-14T03:19:01;15.65;38.22
72202;SHT30;60105;54.956;73.412;2023-06-14T03:22:05;15.71;38.77
72202;SHT30;60105;54.956;73.412;2023-06-14T03:25:08;15.78;37.53
72202;SHT30;60105;54.956;73.412;2023-06-14T03:28:12;15.87;40.08
72202;SHT30;60105;54.956;73.412;2023-06-14T03:32:01;15.98;39.17
72202;SHT30;60105;54.956;73.412;2023-06-14T03:35:10;16.04;35.48
72202;SHT30;60105;54.956;73.412;2023-06-14T03:38:18;16.16;37.97
72202;SHT30;60105;54.956;73.412;2023-06-14T03:41:50;16.25;34.71
72202;SHT30;60105;54.956;73.412;2023-06-14T03:44:51;16.34;34.86
72202;SHT30;60105;54.956;73.412;2023-06-14T03:47:55;16.42;35.17
72202;SHT30;60105;54.956;73.412;2023-06-14T03:50:58;16.46;34.42
72202;SHT30;60105;54.956;73.412;2023-06-14T03:54:02;16.56;34.65
72202;SHT30;60105;54.956;73.412;2023-06-14T03:57:04;16.66;34.96
72202;SHT30;60105;54.956;73.412;2023-06-14T04:00:07;16.76;33.51
72202;SHT30;60105;54.956;73.412;2023-06-14T04:03:15;16.73;32.82
72202;SHT30;60105;54.956;73.412;2023-06-14T04:06:50;16.81;33.24
72202;SHT30;60105;54.956;73.412;2023-06-14T04:09:52;16.88;33.59
72202;SHT30;60105;54.956;73.412;2023-06-14T04:12:54;16.94;32.78
72202;SHT30;60105;54.956;73.412;2023-06-14T04:15:55;16.91;31.86
72202;SHT30;60105;54.956;73.412;2023-06-14T04:19:03;17.00;33.50
72202;SHT30;60105;54.956;73.412;2023-06-14T04:22:05;17.08;31.40
72202;SHT30;60105;54.956;73.412;2023-06-14T04:25:09;17.10;31.74
72202;SHT30;60105;54.956;73.412;2023-06-14T04:28:12;17.18;33.94
72202;SHT30;60105;54.956;73.412;2023-06-14T04:31:50;17.24;31.62
72202;SHT30;60105;54.956;73.412;2023-06-14T04:34:56;17.32;32.35
72202;SHT30;60105;54.956;73.412;2023-06-14T04:38:00;17.29;32.07
72202;SHT30;60105;54.956;73.412;2023-06-14T04:41:03;17.43;31.99
72202;SHT30;60105;54.956;73.412;2023-06-14T04:44:04;17.49;31.24
72202;SHT30;60105;54.956;73.412;2023-06-14T04:47:11;17.53;31.94
72202;SHT30;60105;54.956;73.412;2023-06-14T04:50:13;17.59;32.50
72202;SHT30;60105;54.956;73.412;2023-06-14T04:53:15;17.69;31.29
72202;SHT30;60105;54.956;73.412;2023-06-14T04:56:18;17.79;31.45
72202;SHT30;60105;54.956;73.412;2023-06-14T04:59:20;17.82;33.06
72202;SHT30;60105;54.956;73.412;2023-06-14T05:02:24;17.91;32.89
72202;SHT30;60105;54.956;73.412;2023-06-14T05:05:28;18.00;32.17
72202;SHT30;60105;54.956;73.412;2023-06-14T05:08:29;18.10;32.38
72202;SHT30;60105;54.956;73.412;2023-06-14T05:11:50;18.20;31.83
72202;SHT30;60105;54.956;73.412;2023-06-14T05:14:51;18.30;32.88
72202;SHT30;60105;54.956;73.412;2023-06-14T05:17:55;18.34;30.76
72202;SHT30;60105;54.956;73.412;2023-06-14T05:20:57;18.37;31.28
72202;SHT30;60105;54.956;73.412;2023-06-14T05:23:58;18.44;30.95
72202;SHT30;60105;54.956;73.412;2023-06-14T05:27:00;18.45;31.25
72202;SHT30;60105;54.956;73.412;2023-06-14T05:30:01;18.55;31.29
72202;SHT30;60105;54.956;73.412;2023-06-14T05:33:06;18.65;30.08
72202;SHT30;60105;54.956;73.412;2023-06-14T05:36:50;18.66;29.70
72202;SHT30;60105;54.956;73.412;2023-06-14T05:39:51;18.71;29.83
72202;SHT30;60105;54.956;73.412;2023-06-14T05:42:52;18.71;29.76
72202;SHT30;60105;54.956;73.412;2023-06-14T05:45:54;18.77;30.61
72202;SHT30;60105;54.956;73.412;2023-06-14T05:48:55;18.88;31.23
72202;SHT30;60105;54.956;73.412;2023-06-14T05:51:57;18.89;29.55
72202;SHT30;60105;54.956;73.412;2023-06-14T05:54:58;18.98;30.02
72202;SHT30;60105;54.956;73.412;2023-06-14T05:57:59;19.07;29.47
72202;SHT30;60105;54.956;73.412;2023-06-14T06:01:01;19.07;29.09
72202;SHT30;60105;54.956;73.412;2023-06-14T06:04:03;19.17;29.55
72202;SHT30;60105;54.956;73.412;2023-06-14T06:07:04;19.19;29.48
72202;SHT30;60105;54.956;73.412;2023-06-14T06:10:06;19.26;29.48
72202;SHT30;60105;54.956;73.412;2023-06-14T06:13:07;19.26;30.48
72202;SHT30;60105;54.956;73.412;2023-06-14T06:16:50;19.31;30.22
72202;SHT30;60105;54.956;73.412;2023-06-14T06:19:54;19.38;28.88
72202;SHT30;60105;54.956;73.412;2023-06-14T06:22:55;19.54;29.95
72202;SHT30;60105;54.956;73.412;2023-06-14T06:25:57;19.63;29.24
72202;SHT30;60105;54.956;73.412;2023-06-14T06:28:58;19.50;28.52
72202;SHT30;60105;54.956;73.412;2023-06-14T06:32:00;19.53;27.92
72202;SHT30;60105;54.956;73.412;2023-06-14T06:35:02;19.64;29.65
72202;SHT30;60105;54.956;73.412;2023-06-14T06:38:04;19.75;29.99
72202;SHT30;60105;54.956;73.412;2023-06-14T06:41:50;19.85;28.50
72202;SHT30;60105;54.956;73.412;2023-06-14T06:45:02;19.94;29.46
72202;SHT30;60105;54.956;73.412;2023-06-14T06:48:06;20.12;29.75
72202;SHT30;60105;54.956;73.412;2023-06-14T06:52:04;20.18;30.86
72202;SHT30;60105;54.956;73.412;2023-06-14T06:55:06;20.06;28.35
72202;SHT30;60105;54.956;73.412;2023-06-14T06:58:08;20.23;29.11
72202;SHT30;60105;54.956;73.412;2023-06-14T07:01:50;20.16;28.34
72202;SHT30;60105;54.956;73.412;2023-06-14T07:04:51;20.09;27.86
72202;SHT30;60105;54.956;73.412;2023-06-14T07:07:53;20.02;28.48
72202;SHT30;60105;54.956;73.412;2023-06-14T07:10:54;20.12;29.08
72202;SHT30;60105;54.956;73.412;2023-06-14T07:13:56;20.26;27.23
72202;SHT30;60105;54.956;73.412;2023-06-14T07:16:57;20.28;28.01
72202;SHT30;60105;54.956;73.412;2023-06-14T07:19:59;20.30;26.98
72202;SHT30;60105;54.956;73.412;2023-06-14T07:23:01;20.30;27.14
72202;SHT30;60105;54.956;73.412;2023-06-14T07:26:05;20.40;28.60
72202;SHT30;60105;54.956;73.412;2023-06-14T07:29:07;20.43;27.34
72202;SHT30;60105;54.956;73.412;2023-06-14T07:32:08;20.37;28.00
72202;SHT30;60105;54.956;73.412;2023-06-14T07:35:09;20.61;29.15
72202;SHT30;60105;54.956;73.412;2023-06-14T07:38:11;20.77;28.12
72202;SHT30;60105;54.956;73.412;2023-06-14T07:41:50;20.77;27.51
72202;SHT30;60105;54.956;73.412;2023-06-14T07:44:51;20.80;25.85
72202;SHT30;60105;54.956;73.412;2023-06-14T07:47:55;20.73;26.14
72202;SHT30;60105;54.956;73.412;2023-06-14T07:50:57;20.80;26.34
72202;SHT30;60105;54.956;73.412;2023-06-14T07:53:59;20.92;26.28
72202;SHT30;60105;54.956;73.412;2023-06-14T07:57:04;20.90;27.03
72202;SHT30;60105;54.956;73.412;2023-06-14T08:00:07;21.05;27.01
72202;SHT30;60105;54.956;73.412;2023-06-14T08:03:13;21.22;28.13
72202;SHT30;60105;54.956;73.412;2023-06-14T08:06:50;21.50;26.91
72202;SHT30;60105;54.956;73.412;2023-06-14T08:09:51;21.73;27.98
72202;SHT30;60105;54.956;73.412;2023-06-14T08:12:52;22.01;27.88
72202;SHT30;60105;54.956;73.412;2023-06-14T08:15:54;22.13;27.17
72202;SHT30;60105;54.956;73.412;2023-06-14T08:18:56;22.03;27.23
72202;SHT30;60105;54.956;73.412;2023-06-14T08:21:58;21.94;26.51
72202;SHT30;60105;54.956;73.412;2023-06-14T08:25:00;22.21;26.69
72202;SHT30;60105;54.956;73.412;2023-06-14T08:28:03;22.47;26.14
72202;SHT30;60105;54.956;73.412;2023-06-14T08:31:04;22.18;26.28
72202;SHT30;60105;54.956;73.412;2023-06-14T08:34:05;22.07;26.33
72202;SHT30;60105;54.956;73.412;2023-06-14T08:37:07;22.04;26.20
72202;SHT30;60105;54.956;73.412;2023-06-14T08:40:20;22.22;26.89
72202;SHT30;60105;54.956;73.412;2023-06-14T08:43:22;22.17;27.54
72202;SHT30;60105;54.956;73.412;2023-06-14T08:46:50;22.48;26.73
72202;SHT30;60105;54.956;73.412;2023-06-14T08:49:55;22.91;27.28
72202;SHT30;60105;54.956;73.412;2023-06-14T08:53:00;23.27;27.58
72202;SHT30;60105;54.956;73.412;2023-06-14T08:56:04;23.20;24.68
72202;SHT30;60105;54.956;73.412;2023-06-14T08:59:06;23.26;25.00
72202;SHT30;60105;54.956;73.412;2023-06-14T09:02:09;23.57;26.98
72202;SHT30;60105;54.956;73.412;2023-06-14T09:05:15;23.39;26.14
72202;SHT30;60105;54.956;73.412;2023-06-14T09:08:19;23.10;27.01
72202;SHT30;60105;54.956;73.412;2023-06-14T09:11:50;22.89;26.87
72202;SHT30;60105;54.956;73.412;2023-06-14T09:14:52;22.92;26.46
72202;SHT30;60105;54.956;73.412;2023-06-14T09:17:53;23.09;26.98
72202;SHT30;60105;54.956;73.412;2023-06-14T09:20:54;23.31;27.40
72202;SHT30;60105;54.956;73.412;2023-06-14T09:23:57;23.53;26.91
72202;SHT30;60105;54.956;73.412;2023-06-14T09:26:58;23.54;26.19
72202;SHT30;60105;54.956;73.412;2023-06-14T09:29:59;23.61;26.97
72202;SHT30;60105;54.956;73.412;2023-06-14T09:33:01;23.31;25.65
72202;SHT30;60105;54.956;73.412;2023-06-14T09:36:03;23.09;26.04
72202;SHT30;60105;54.956;73.412;2023-06-14T09:39:05;22.72;26.13
72202;SHT30;60105;54.956;73.412;2023-06-14T09:42:17;22.66;26.24
72202;SHT30;60105;54.956;73.412;2023-06-14T09:45:21;22.65;26.85
72202;SHT30;60105;54.956;73.412;2023-06-14T09:48:23;22.73;27.96
72202;SHT30;60105;54.956;73.412;2023-06-14T09:51:51;23.10;30.45
72202;SHT30;60105;54.956;73.412;2023-06-14T09:54:54;23.23;26.97
72202;SHT30;60105;54.956;73.412;2023-06-14T09:57:57;23.13;26.33
72202;SHT30;60105;54.956;73.412;2023-06-14T10:01:01;23.13;27.60
72202;SHT30;60105;54.956;73.412;2023-06-14T10:04:06;23.06;27.30
72202;SHT30;60105;54.956;73.412;2023-06-14T10:07:08;23.19;27.73
72202;SHT30;60105;54.956;73.412;2023-06-14T10:10:10;23.15;26.27
72202;SHT30;60105;54.956;73.412;2023-06-14T10:13:13;23.00;27.00
72202;SHT30;60105;54.956;73.412;2023-06-14T10:16:56;23.03;26.46
72202;SHT30;60105;54.956;73.412;2023-06-14T10:20:17;23.09;26.82
72202;SHT30;60105;54.956;73.412;2023-06-14T10:23:23;22.99;27.30
72202;SHT30;60105;54.956;73.412;2023-06-14T10:26:25;23.03;26.93
72202;SHT30;60105;54.956;73.412;2023-06-14T10:29:28;23.03;26.77
72202;SHT30;60105;54.956;73.412;2023-06-14T10:32:33;23.17;28.11
72202;SHT30;60105;54.956;73.412;2023-06-14T10:35:34;23.27;26.60
72202;SHT30;60105;54.956;73.412;2023-06-14T10:38:38;23.26;26.67
72202;SHT30;60105;54.956;73.412;2023-06-14T10:41:50;23.28;27.19
72202;SHT30;60105;54.956;73.412;2023-06-14T10:44:58;23.43;28.00
72202;SHT30;60105;54.956;73.412;2023-06-14T10:48:30;23.58;28.49
72202;SHT30;60105;54.956;73.412;2023-06-14T10:51:50;23.74;28.57
72202;SHT30;60105;54.956;73.412;2023-06-14T10:57:57;23.98;26.97
72202;SHT30;60105;54.956;73.412;2023-06-14T11:01:00;23.84;26.74
72202;SHT30;60105;54.956;73.412;2023-06-14T11:04:07;23.74;26.94
72202;SHT30;60105;54.956;73.412;2023-06-14T11:10:43;23.71;27.13
72202;SHT30;60105;54.956;73.412;2023-06-14T11:13:51;23.79;27.54
72202;SHT30;60105;54.956;73.412;2023-06-14T11:16:52;23.85;27.87
72202;SHT30;60105;54.956;73.412;2023-06-14T11:20:12;23.81;27.12
72202;SHT30;60105;54.956;73.412;2023-06-14T11:23:16;23.98;28.36
72202;SHT30;60105;54.956;73.412;2023-06-14T11:26:28;24.09;26.50
72202;SHT30;60105;54.956;73.412;2023-06-14T11:29:31;23.95;27.00
72202;SHT30;60105;54.956;73.412;2023-06-14T11:32:32;24.00;27.45
72202;SHT30;60105;54.956;73.412;2023-06-14T11:35:34;24.02;28.11
72202;SHT30;60105;54.956;73.412;2023-06-14T11:38:36;24.09;27.65
72202;SHT30;60105;54.956;73.412;2023-06-14T11:41:49;24.23;28.00
72202;SHT30;60105;54.956;73.412;2023-06-14T11:44:51;23.91;28.88
72202;SHT30;60105;54.956;73.412;2023-06-14T11:47:55;23.94;27.90
72202;SHT30;60105;54.956;73.412;2023-06-14T11:50:57;24.18;27.62
72202;SHT30;60105;54.956;73.412;2023-06-14T11:53:59;24.28;27.98
72202;SHT30;60105;54.956;73.412;2023-06-14T11:57:02;24.37;27.81
72202;SHT30;60105;54.956;73.412;2023-06-14T12:00:08;24.39;26.80
72202;SHT30;60105;54.956;73.412;2023-06-14T12:03:13;24.33;26.71
72202;SHT30;60105;54.956;73.412;2023-06-14T12:06:50;24.32;28.47
72202;SHT30;60105;54.956;73.412;2023-06-14T12:13:03;24.42;29.83
72202;SHT30;60105;54.956;73.412;2023-06-14T12:16:07;24.25;27.78
72202;SHT30;60105;54.956;73.412;2023-06-14T12:19:16;24.26;27.90
72202;SHT30;60105;54.956;73.412;2023-06-14T12:22:17;24.23;27.09
72202;SHT30;60105;54.956;73.412;2023-06-14T12:25:35;24.23;28.20
72202;SHT30;60105;54.956;73.412;2023-06-14T12:28:40;24.33;28.56
72202;SHT30;60105;54.956;73.412;2023-06-14T12:31:49;24.29;29.31
72202;SHT30;60105;54.956;73.412;2023-06-14T12:34:51;24.36;29.28
72202;SHT30;60105;54.956;73.412;2023-06-14T12:37:52;24.43;29.12
72202;SHT30;60105;54.956;73.412;2023-06-14T12:40:53;24.42;28.60
72202;SHT30;60105;54.956;73.412;2023-06-14T12:43:55;24.53;31.19
72202;SHT30;60105;54.956;73.412;2023-06-14T12:46:58;24.50;28.85
72202;SHT30;60105;54.956;73.412;2023-06-14T12:50:00;24.53;28.80
72202;SHT30;60105;54.956;73.412;2023-06-14T12:53:01;24.55;29.92
72202;SHT30;60105;54.956;73.412;2023-06-14T12:56:03;24.43;28.50
72202;SHT30;60105;54.956;73.412;2023-06-14T12:59:05;24.37;28.76
72202;SHT30;60105;54.956;73.412;2023-06-14T13:02:17;24.40;28.96
72202;SHT30;60105;54.956;73.412;2023-06-14T13:05:19;24.42;29.52
72202;SHT30;60105;54.956;73.412;2023-06-14T13:08:21;24.40;29.73
72202;SHT30;60105;54.956;73.412;2023-06-14T13:11:50;24.37;29.00
72202;SHT30;60105;54.956;73.412;2023-06-14T13:14:51;24.40;28.67
72202;SHT30;60105;54.956;73.412;2023-06-14T13:17:53;24.39;29.61
72202;SHT30;60105;54.956;73.412;2023-06-14T13:20:54;24.30;28.60
72202;SHT30;60105;54.956;73.412;2023-06-14T13:23:57;24.29;29.87
72202;SHT30;60105;54.956;73.412;2023-06-14T13:26:58;24.35;30.75
72202;SHT30;60105;54.956;73.412;2023-06-14T13:29:59;24.46;29.64
72202;SHT30;60105;54.956;73.412;2023-06-14T13:33:01;24.73;29.64
72202;SHT30;60105;54.956;73.412;2023-06-14T13:36:02;25.21;27.89
72202;SHT30;60105;54.956;73.412;2023-06-14T13:39:04;25.86;27.33
72202;SHT30;60105;54.956;73.412;2023-06-14T13:42:06;26.88;26.32
72202;SHT30;60105;54.956;73.412;2023-06-14T13:45:10;27.47;25.44
72202;SHT30;60105;54.956;73.412;2023-06-14T13:48:11;27.94;25.78
72202;SHT30;60105;54.956;73.412;2023-06-14T13:51:50;28.48;24.65
72202;SHT30;60105;54.956;73.412;2023-06-14T13:54:52;28.70;24.45
72202;SHT30;60105;54.956;73.412;2023-06-14T13:57:53;29.00;24.87
72202;SHT30;60105;54.956;73.412;2023-06-14T14:00:54;29.31;23.57
72202;SHT30;60105;54.956;73.412;2023-06-14T14:03:56;29.47;23.51
72202;SHT30;60105;54.956;73.412;2023-06-14T14:06:57;29.51;25.21
72202;SHT30;60105;54.956;73.412;2023-06-14T14:09:58;29.51;23.24
72202;SHT30;60105;54.956;73.412;2023-06-14T14:12:59;29.45;23.61
72202;SHT30;60105;54.956;73.412;2023-06-14T14:16:03;29.51;23.74
72202;SHT30;60105;54.956;73.412;2023-06-14T14:19:04;29.41;23.94
72202;SHT30;60105;54.956;73.412;2023-06-14T14:22:07;29.14;23.01
72202;SHT30;60105;54.956;73.412;2023-06-14T14:25:09;29.18;23.41
72202;SHT30;60105;54.956;73.412;2023-06-14T14:28:12;28.83;23.73
72202;SHT30;60105;54.956;73.412;2023-06-14T14:31:50;28.53;24.22
72202;SHT30;60105;54.956;73.412;2023-06-14T14:34:51;28.51;24.12
72202;SHT30;60105;54.956;73.412;2023-06-14T14:37:52;28.42;24.92
72202;SHT30;60105;54.956;73.412;2023-06-14T14:40:54;28.21;24.71
72202;SHT30;60105;54.956;73.412;2023-06-14T14:43:56;28.08;25.10
72202;SHT30;60105;54.956;73.412;2023-06-14T14:46:57;27.39;27.12
72202;SHT30;60105;54.956;73.412;2023-06-14T14:49:58;26.55;26.91
72202;SHT30;60105;54.956;73.412;2023-06-14T14:53:00;26.62;26.61
72202;SHT30;60105;54.956;73.412;2023-06-14T14:56:01;26.92;26.85
72202;SHT30;60105;54.956;73.412;2023-06-14T14:59:03;26.91;26.46
72202;SHT30;60105;54.956;73.412;2023-06-14T15:02:05;26.72;26.79
72202;SHT30;60105;54.956;73.412;2023-06-14T15:05:06;26.48;26.94
72202;SHT30;60105;54.956;73.412;2023-06-14T15:08:08;26.00;27.38
72202;SHT30;60105;54.956;73.412;2023-06-14T15:11:49;25.66;27.76
72202;SHT30;60105;54.956;73.412;2023-06-14T15:14:51;25.43;28.28
72202;SHT30;60105;54.956;73.412;2023-06-14T15:17:55;24.94;28.74
72202;SHT30;60105;54.956;73.412;2023-06-14T15:20:56;24.32;29.63
72202;SHT30;60105;54.956;73.412;2023-06-14T15:23:58;23.82;29.88
72202;SHT30;60105;54.956;73.412;2023-06-14T15:26:59;23.44;31.38
72202;SHT30;60105;54.956;73.412;2023-06-14T15:30:00;23.23;31.05
72202;SHT30;60105;54.956;73.412;2023-06-14T15:33:05;22.94;31.91
72202;SHT30;60105;54.956;73.412;2023-06-14T15:36:50;22.71;31.93
72202;SHT30;60105;54.956;73.412;2023-06-14T15:39:51;22.55;32.14
72202;SHT30;60105;54.956;73.412;2023-06-14T15:42:52;22.40;33.11
72202;SHT30;60105;54.956;73.412;2023-06-14T15:45:53;22.25;32.61
72202;SHT30;60105;54.956;73.412;2023-06-14T15:48:55;22.07;33.15
72202;SHT30;60105;54.956;73.412;2023-06-14T15:51:56;21.89;34.15
72202;SHT30;60105;54.956;73.412;2023-06-14T15:54:58;21.76;34.67
72202;SHT30;60105;54.956;73.412;2023-06-14T15:57:59;21.63;34.91
72202;SHT30;60105;54.956;73.412;2023-06-14T16:01:00;21.58;34.73
72202;SHT30;60105;54.956;73.412;2023-06-14T16:04:02;21.50;35.52
72202;SHT30;60105;54.956;73.412;2023-06-14T16:07:04;21.34;34.79
72202;SHT30;60105;54.956;73.412;2023-06-14T16:10:05;21.25;35.72
72202;SHT30;60105;54.956;73.412;2023-06-14T16:13:07;21.07;35.72
72202;SHT30;60105;54.956;73.412;2023-06-14T16:16:50;20.92;36.33
72202;SHT30;60105;54.956;73.412;2023-06-14T16:19:51;20.79;36.36
72202;SHT30;60105;54.956;73.412;2023-06-14T16:22:52;20.73;36.58
72202;SHT30;60105;54.956;73.412;2023-06-14T16:25:54;20.61;37.68
72202;SHT30;60105;54.956;73.412;2023-06-14T16:28:55;20.50;37.57
72202;SHT30;60105;54.956;73.412;2023-06-14T16:31:57;20.37;37.91
72202;SHT30;60105;54.956;73.412;2023-06-14T16:34:58;20.26;38.01
72202;SHT30;60105;54.956;73.412;2023-06-14T16:37:59;20.25;38.06
72202;SHT30;60105;54.956;73.412;2023-06-14T16:41:01;20.19;37.67
72202;SHT30;60105;54.956;73.412;2023-06-14T16:44:02;20.09;38.08
72202;SHT30;60105;54.956;73.412;2023-06-14T16:47:06;20.06;38.37
72202;SHT30;60105;54.956;73.412;2023-06-14T16:50:09;19.95;37.98
72202;SHT30;60105;54.956;73.412;2023-06-14T16:53:11;19.91;38.49
72202;SHT30;60105;54.956;73.412;2023-06-14T16:56:22;19.79;38.88
72202;SHT30;60105;54.956;73.412;2023-06-14T16:59:27;19.67;39.05
72202;SHT30;60105;54.956;73.412;2023-06-14T17:02:28;19.54;38.87
72202;SHT30;60105;54.956;73.412;2023-06-14T17:05:30;19.47;39.81
72202;SHT30;60105;54.956;73.412;2023-06-14T17:08:32;19.37;39.74
72202;SHT30;60105;54.956;73.412;2023-06-14T17:11:49;19.31;39.64
72202;SHT30;60105;54.956;73.412;2023-06-14T17:14:50;19.23;41.04
72202;SHT30;60105;54.956;73.412;2023-06-14T17:17:52;19.16;40.21
72202;SHT30;60105;54.956;73.412;2023-06-14T17:20:53;19.09;39.85
72202;SHT30;60105;54.956;73.412;2023-06-14T17:23:54;19.03;40.66
72202;SHT30;60105;54.956;73.412;2023-06-14T17:26:56;18.98;40.33
72202;SHT30;60105;54.956;73.412;2023-06-14T17:29:58;18.92;39.94
72202;SHT30;60105;54.956;73.412;2023-06-14T17:32:59;18.84;41.69
72202;SHT30;60105;54.956;73.412;2023-06-14T17:36:00;18.81;41.66
72202;SHT30;60105;54.956;73.412;2023-06-14T17:39:02;18.71;41.74
72202;SHT30;60105;54.956;73.412;2023-06-14T17:42:04;18.65;41.75
72202;SHT30;60105;54.956;73.412;2023-06-14T17:45:06;18.55;41.54
72202;SHT30;60105;54.956;73.412;2023-06-14T17:48:07;18.52;41.08
72202;SHT30;60105;54.956;73.412;2023-06-14T17:51:50;18.45;41.58
72202;SHT30;60105;54.956;73.412;2023-06-14T17:54:51;18.37;41.75
72202;SHT30;60105;54.956;73.412;2023-06-14T17:57:52;18.34;41.90
72202;SHT30;60105;54.956;73.412;2023-06-14T18:00:54;18.26;42.07
72202;SHT30;60105;54.956;73.412;2023-06-14T18:03:56;18.20;41.37
72202;SHT30;60105;54.956;73.412;2023-06-14T18:06:58;18.16;41.60
72202;SHT30;60105;54.956;73.412;2023-06-14T18:10:01;18.13;42.03
72202;SHT30;60105;54.956;73.412;2023-06-14T18:13:03;18.04;41.61
72202;SHT30;60105;54.956;73.412;2023-06-14T18:16:04;18.03;42.63
72202;SHT30;60105;54.956;73.412;2023-06-14T18:19:09;17.97;42.15
72202;SHT30;60105;54.956;73.412;2023-06-14T18:22:10;17.91;42.65
72202;SHT30;60105;54.956;73.412;2023-06-14T18:25:13;17.85;42.75
72202;SHT30;60105;54.956;73.412;2023-06-14T18:28:14;17.77;42.52
72202;SHT30;60105;54.956;73.412;2023-06-14T18:31:49;17.70;42.39
72202;SHT30;60105;54.956;73.412;2023-06-14T18:34:51;17.72;42.38
72202;SHT30;60105;54.956;73.412;2023-06-14T18:37:52;17.63;43.52
72202;SHT30;60105;54.956;73.412;2023-06-14T18:40:55;17.59;43.39
72202;SHT30;60105;54.956;73.412;2023-06-14T18:43:57;17.55;42.73
72202;SHT30;60105;54.956;73.412;2023-06-14T18:46:58;17.49;43.87
72202;SHT30;60105;54.956;73.412;2023-06-14T18:49:59;17.40;43.72
72202;SHT30;60105;54.956;73.412;2023-06-14T18:53:01;17.36;44.44
72202;SHT30;60105;54.956;73.412;2023-06-14T18:56:02;17.31;43.69
72202;SHT30;60105;54.956;73.412;2023-06-14T18:59:04;17.27;44.14
72202;SHT30;60105;54.956;73.412;2023-06-14T19:02:05;17.21;43.90
72202;SHT30;60105;54.956;73.412;2023-06-14T19:05:07;17.18;44.10
72202;SHT30;60105;54.956;73.412;2023-06-14T19:08:09;17.12;45.19
72202;SHT30;60105;54.956;73.412;2023-06-14T19:11:49;17.08;44.83
72202;SHT30;60105;54.956;73.412;2023-06-14T19:14:51;17.07;45.03
72202;SHT30;60105;54.956;73.412;2023-06-14T19:17:55;17.06;44.60
72202;SHT30;60105;54.956;73.412;2023-06-14T19:20:57;17.01;44.24
72202;SHT30;60105;54.956;73.412;2023-06-14T19:23:58;16.97;44.12
72202;SHT30;60105;54.956;73.412;2023-06-14T19:27:00;16.94;44.71
72202;SHT30;60105;54.956;73.412;2023-06-14T19:30:02;16.95;44.63